Time;durP1;ratioP1;P1;durP2;ratioP2;P2;SDS_P1;SDS_P2;PMS_P1;PMS_P2;Temp;Humidity;BMP_temperature;BMP_pressure;BME280_temperature;BME280_humidity;BME280_pressure;Samples;Min_cycle;Max_cycle;Signal;HPM_P1;HPM_P2
2023/06/13 00:00:07;;;;;;;1.20;1.10;;;;;;;15.43;100.00;98751.84;5054718;28;20223;-77
2023/06/13 00:02:34;;;;;;;2.20;1.30;;;;;;;15.43;100.00;98753.59;5054559;28;20211;-78
2023/06/13 00:05:03;;;;;;;1.43;1.10;;;;;;;15.42;100.00;98754.53;5054755;28;20220;-78
2023/06/13 00:07:32;;;;;;;1.67;1.07;;;;;;;15.41;100.00;98753.75;5055034;28;20590;-78
2023/06/13 00:09:59;;;;;;;1.93;1.10;;;;;;;15.43;100.00;98758.75;5055194;28;20641;-78
2023/06/13 00:12:26;;;;;;;1.83;1.10;;;;;;;15.32;100.00;98754.66;5054177;28;20293;-77
2023/06/13 00:14:53;;;;;;;1.30;1.10;;;;;;;15.28;100.00;98753.34;5055216;28;20722;-77
2023/06/13 00:17:24;;;;;;;1.30;1.10;;;;;;;15.25;100.00;98751.06;5054129;28;20201;-77
2023/06/13 00:19:54;;;;;;;1.17;1.00;;;;;;;15.16;100.00;98745.84;5055656;28;20188;-77
2023/06/13 00:22:21;;;;;;;1.40;1.07;;;;;;;15.15;100.00;98744.22;5054323;28;20600;-77
2023/06/13 00:24:48;;;;;;;1.20;1.10;;;;;;;15.11;100.00;98735.16;5054475;28;20269;-77
2023/06/13 00:27:15;;;;;;;1.50;1.13;;;;;;;15.09;100.00;98744.78;5054004;28;20245;-77
2023/06/13 00:29:42;;;;;;;1.40;1.20;;;;;;;15.10;100.00;98740.47;5053512;28;20219;-78
2023/06/13 00:32:09;;;;;;;0.97;0.90;;;;;;;15.09;100.00;98744.78;5055310;28;20691;-77
2023/06/13 00:34:38;;;;;;;1.20;1.10;;;;;;;15.05;100.00;98747.84;5054339;28;20200;-77
2023/06/13 00:37:09;;;;;;;1.90;1.20;;;;;;;15.00;100.00;98750.84;5053653;28;20219;-77
2023/06/13 00:39:36;;;;;;;1.47;1.30;;;;;;;14.99;100.00;98751.81;5054302;28;20205;-78
2023/06/13 00:42:04;;;;;;;2.40;1.60;;;;;;;14.94;100.00;98746.28;5054076;28;20239;-77
2023/06/13 00:44:31;;;;;;;1.57;1.10;;;;;;;14.84;100.00;98751.50;5054211;28;20196;-78
2023/06/13 00:46:58;;;;;;;1.57;1.37;;;;;;;14.83;100.00;98749.06;5056554;28;20649;-79
2023/06/13 00:49:25;;;;;;;2.17;1.03;;;;;;;14.83;100.00;98743.91;5054733;28;20282;-77
2023/06/13 00:51:54;;;;;;;2.63;1.60;;;;;;;14.86;100.00;98743.63;5053041;28;20215;-77
2023/06/13 00:54:23;;;;;;;1.77;1.20;;;;;;;14.77;100.00;98736.78;5053206;28;20470;-77
2023/06/13 00:56:50;;;;;;;1.50;1.20;;;;;;;14.79;100.00;98742.59;5053311;28;20222;-77
2023/06/13 00:59:18;;;;;;;1.50;1.17;;;;;;;14.71;100.00;98741.56;5054181;28;20215;-76
2023/06/13 01:01:47;;;;;;;1.47;1.20;;;;;;;14.53;100.00;98737.34;5053394;28;20235;-78
2023/06/13 01:04:15;;;;;;;1.87;1.27;;;;;;;14.51;100.00;98740.03;5053892;28;20293;-77
2023/06/13 01:06:44;;;;;;;2.63;1.00;;;;;;;14.47;100.00;98738.69;5052970;28;20223;-77
2023/06/13 01:09:14;;;;;;;1.60;1.13;;;;;;;14.50;100.00;98734.06;5052922;28;20198;-77
2023/06/13 01:11:50;;;;;;;1.20;1.10;;;;;;;14.48;100.00;98735.16;5053451;28;20227;-77
2023/06/13 01:14:24;;;;;;;1.30;1.20;;;;;;;14.47;100.00;98734.38;5053245;28;20214;-77
2023/06/13 01:16:57;;;;;;;4.53;1.30;;;;;;;14.42;100.00;98735.75;5052149;28;20234;-77
2023/06/13 01:19:31;;;;;;;1.40;1.00;;;;;;;14.36;100.00;98737.13;5052737;28;20208;-77
2023/06/13 01:21:59;;;;;;;1.60;1.20;;;;;;;14.35;100.00;98745.81;5053433;28;20891;-77
2023/06/13 01:24:38;;;;;;;1.23;1.00;;;;;;;14.36;100.00;98736.31;5052591;28;20674;-77
2023/06/13 01:27:08;;;;;;;1.67;1.20;;;;;;;14.30;100.00;98739.47;5051354;28;20202;-77
2023/06/13 01:29:35;;;;;;;2.10;1.30;;;;;;;14.31;100.00;98743.66;5051918;28;20207;-77
2023/06/13 01:32:04;;;;;;;1.90;0.93;;;;;;;14.29;100.00;98736.09;5050933;28;20231;-77
2023/06/13 01:34:31;;;;;;;1.57;1.17;;;;;;;14.31;100.00;98735.94;5052554;28;20256;-77
2023/06/13 01:36:58;;;;;;;1.57;0.90;;;;;;;14.21;100.00;98743.69;5051747;28;20281;-77
2023/06/13 01:39:25;;;;;;;1.63;1.10;;;;;;;14.20;100.00;98737.75;5051612;28;20603;-77
2023/06/13 01:41:52;;;;;;;2.10;1.13;;;;;;;14.18;100.00;98749.94;5051568;28;20247;-77
2023/06/13 01:44:22;;;;;;;1.60;1.20;;;;;;;14.18;100.00;98749.13;5052892;28;20202;-77
2023/06/13 01:46:59;;;;;;;1.27;0.97;;;;;;;14.15;100.00;98746.84;5051295;28;20234;-77
2023/06/13 01:49:37;;;;;;;1.57;1.07;;;;;;;14.12;100.00;98740.22;5052160;28;20262;-77
2023/06/13 01:52:11;;;;;;;1.63;1.20;;;;;;;14.07;100.00;98741.59;5051406;28;20222;-77
2023/06/13 01:54:46;;;;;;;1.17;1.07;;;;;;;14.08;100.00;98741.47;5051827;28;20205;-77
2023/06/13 01:57:17;;;;;;;1.47;1.10;;;;;;;14.11;100.00;98733.47;5051177;28;20198;-77
2023/06/13 01:59:51;;;;;;;1.77;1.30;;;;;;;14.03;100.00;98741.06;5052403;28;20698;-77
2023/06/13 02:02:18;;;;;;;1.67;1.20;;;;;;;14.03;100.00;98741.06;5052399;28;20241;-77
2023/06/13 02:04:45;;;;;;;1.67;1.20;;;;;;;14.02;100.00;98744.56;5050520;28;20195;-77
2023/06/13 02:07:11;;;;;;;1.50;1.00;;;;;;;14.00;100.00;98741.38;5051567;28;20269;-78
2023/06/13 02:09:38;;;;;;;1.43;1.10;;;;;;;14.02;100.00;98744.56;5052207;28;20212;-77
2023/06/13 02:12:06;;;;;;;2.67;1.30;;;;;;;13.99;100.00;98739.72;5051709;28;20198;-77
2023/06/13 02:14:33;;;;;;;1.73;1.13;;;;;;;13.98;100.00;98740.69;5055600;28;20199;-77
2023/06/13 02:17:01;;;;;;;2.13;1.40;;;;;;;13.94;100.00;98731.66;5056037;28;20738;-77
2023/06/13 02:19:29;;;;;;;1.50;1.30;;;;;;;13.93;100.00;98740.28;5055111;28;20788;-77
2023/06/13 02:21:56;;;;;;;1.97;1.20;;;;;;;13.92;100.00;98738.69;5055737;28;20248;-77
2023/06/13 02:24:23;;;;;;;3.43;1.17;;;;;;;13.89;100.00;98736.38;5056194;28;20214;-77
2023/06/13 02:26:51;;;;;;;1.77;1.07;;;;;;;13.80;100.00;98741.41;5056290;28;20225;-77
2023/06/13 02:29:18;;;;;;;1.53;1.10;;;;;;;13.78;100.00;98738.16;5056883;28;20380;-77
2023/06/13 02:31:45;;;;;;;1.43;1.00;;;;;;;13.77;100.00;98741.69;5055251;28;20296;-77
2023/06/13 02:34:13;;;;;;;1.53;1.33;;;;;;;13.77;100.00;98736.56;5054986;28;20294;-77
2023/06/13 02:36:40;;;;;;;1.83;1.13;;;;;;;13.72;100.00;98735.34;5056605;28;20705;-77
2023/06/13 02:39:08;;;;;;;1.53;1.20;;;;;;;13.78;100.00;98742.50;5055866;28;20233;-77
2023/06/13 02:41:35;;;;;;;1.20;1.07;;;;;;;13.73;100.00;98740.38;5057145;28;20233;-78
2023/06/13 02:44:02;;;;;;;3.30;1.50;;;;;;;13.74;100.00;98741.97;5055844;28;20204;-77
2023/06/13 02:46:29;;;;;;;1.67;1.27;;;;;;;13.75;100.00;98748.72;5055721;28;20348;-77
2023/06/13 02:48:56;;;;;;;1.87;1.30;;;;;;;13.69;100.00;98748.47;5055897;28;20737;-77
2023/06/13 02:51:24;;;;;;;2.70;1.40;;;;;;;13.73;100.00;98755.78;5057541;28;20229;-78
2023/06/13 02:53:51;;;;;;;1.80;1.00;;;;;;;13.70;100.00;98756.06;5055592;28;20661;-77
2023/06/13 02:56:18;;;;;;;1.70;1.33;;;;;;;13.70;100.00;98760.38;5057166;28;20231;-78
2023/06/13 02:58:44;;;;;;;2.63;1.40;;;;;;;13.65;100.00;98763.38;5056810;28;20206;-78
2023/06/13 03:01:12;;;;;;;2.40;1.40;;;;;;;13.69;100.00;98759.56;5057294;28;20292;-78
2023/06/13 03:03:38;;;;;;;1.37;1.10;;;;;;;13.61;100.00;98762.00;5057436;28;20201;-78
2023/06/13 03:06:05;;;;;;;3.87;1.40;;;;;;;13.61;100.00;98761.19;5056855;28;20282;-78
2023/06/13 03:08:34;;;;;;;2.50;1.50;;;;;;;13.65;100.00;98757.44;5055708;28;20204;-78
2023/06/13 03:11:00;;;;;;;1.77;1.20;;;;;;;13.63;100.00;98770.41;5056403;28;20222;-78
2023/06/13 03:13:28;;;;;;;1.40;1.20;;;;;;;13.61;100.00;98762.00;5056099;28;20206;-77
2023/06/13 03:15:56;;;;;;;2.23;1.40;;;;;;;13.54;100.00;98766.09;5056706;28;20254;-77
2023/06/13 03:18:23;;;;;;;1.73;1.20;;;;;;;13.57;100.00;98770.94;5056488;28;20216;-78
2023/06/13 03:20:50;;;;;;;1.73;1.23;;;;;;;13.61;100.00;98764.56;5057152;28;20226;-78
2023/06/13 03:23:17;;;;;;;1.80;1.30;;;;;;;13.59;100.00;98759.59;5057360;28;20713;-78
2023/06/13 03:25:46;;;;;;;1.97;1.40;;;;;;;13.58;100.00;98759.72;5054134;28;20281;-77
2023/06/13 03:28:12;;;;;;;1.53;1.20;;;;;;;13.60;100.00;98765.53;5055731;28;20242;-77
2023/06/13 03:30:39;;;;;;;2.17;1.40;;;;;;;13.68;100.00;98757.94;5055842;28;20284;-78
2023/06/13 03:33:06;;;;;;;1.97;1.40;;;;;;;13.69;100.00;98769.03;5055732;28;20217;-78
2023/06/13 03:35:34;;;;;;;1.63;1.40;;;;;;;13.72;100.00;98759.28;5056804;28;20238;-78
2023/06/13 03:38:01;;;;;;;1.70;1.37;;;;;;;13.73;100.00;98760.09;5055215;28;20241;-77
2023/06/13 03:40:28;;;;;;;1.70;1.17;;;;;;;13.75;100.00;98763.34;5055949;28;20237;-78
2023/06/13 03:42:56;;;;;;;1.57;1.33;;;;;;;13.70;100.00;98768.91;5052689;28;20236;-78
2023/06/13 03:45:24;;;;;;;2.40;1.30;;;;;;;13.68;100.00;98765.66;5055351;28;20221;-78
2023/06/13 03:47:51;;;;;;;1.33;1.20;;;;;;;13.69;100.00;98777.53;5056408;28;20579;-78
2023/06/13 03:50:18;;;;;;;1.97;1.47;;;;;;;13.75;100.00;98774.41;5057428;28;20219;-77
2023/06/13 03:52:44;;;;;;;1.90;1.40;;;;;;;13.74;100.00;98780.50;5055592;28;20208;-77
2023/06/13 03:55:11;;;;;;;2.57;1.50;;;;;;;13.78;100.00;98778.47;5054463;28;20720;-78
2023/06/13 03:57:38;;;;;;;1.87;1.30;;;;;;;13.76;100.00;98781.19;5054662;28;20197;-78
2023/06/13 04:00:09;;;;;;;2.77;1.63;;;;;;;13.84;100.00;98779.69;5053404;28;20268;-78
2023/06/13 04:02:36;;;;;;;1.70;1.20;;;;;;;13.86;100.00;98772.66;5055468;28;20229;-78
2023/06/13 04:05:03;;;;;;;1.60;1.20;;;;;;;13.87;100.00;98781.97;5053425;28;20228;-79
2023/06/13 04:07:33;;;;;;;2.13;1.30;;;;;;;13.87;100.00;98782.78;5053524;28;20238;-78
2023/06/13 04:10:01;;;;;;;2.50;1.33;;;;;;;13.84;100.00;98782.25;5054218;28;20251;-79
2023/06/13 04:12:28;;;;;;;7.10;1.50;;;;;;;13.83;100.00;98771.16;5053340;28;20241;-79
2023/06/13 04:14:55;;;;;;;2.60;1.57;;;;;;;13.93;100.00;98781.41;5055822;28;20233;-80
2023/06/13 04:17:23;;;;;;;1.63;1.33;;;;;;;13.95;100.00;98774.38;5053440;28;20210;-79
2023/06/13 04:19:50;;;;;;;2.07;1.50;;;;;;;13.93;100.00;98781.41;5054391;28;20286;-79
2023/06/13 04:22:18;;;;;;;2.30;1.50;;;;;;;13.96;100.00;98776.00;5052342;28;20716;-78
2023/06/13 04:24:45;;;;;;;2.27;1.70;;;;;;;13.96;100.00;98779.41;5053266;28;20230;-79
2023/06/13 04:27:13;;;;;;;2.67;1.70;;;;;;;14.02;100.00;98780.56;5053578;28;20254;-78
2023/06/13 04:29:43;;;;;;;1.93;1.40;;;;;;;14.04;100.00;98778.69;5053983;28;20237;-77
2023/06/13 04:32:13;;;;;;;2.53;1.40;;;;;;;14.06;100.00;98787.06;5052802;28;20570;-80
2023/06/13 04:34:44;;;;;;;1.83;1.57;;;;;;;14.14;100.00;98781.22;5052867;28;20218;-80
2023/06/13 04:37:11;;;;;;;2.67;1.53;;;;;;;14.13;100.00;98788.09;5052584;28;20622;-79
2023/06/13 04:39:38;;;;;;;2.03;1.43;;;;;;;14.20;100.00;98789.19;5053602;28;20272;-79
2023/06/13 04:42:06;;;;;;;2.07;1.60;;;;;;;14.22;100.00;98786.47;5052357;28;20227;-79
2023/06/13 04:44:33;;;;;;;1.77;1.40;;;;;;;14.22;100.00;98786.47;5053949;28;20205;-81
2023/06/13 04:47:01;;;;;;;2.60;1.47;;;;;;;14.23;100.00;98788.09;5053530;28;20230;-78
2023/06/13 04:49:28;;;;;;;2.03;1.57;;;;;;;14.28;100.00;98798.75;5054789;28;20619;-78
2023/06/13 04:51:58;;;;;;;2.27;1.60;;;;;;;14.34;100.00;98799.94;5053217;28;20225;-78
2023/06/13 04:54:26;;;;;;;2.33;1.57;;;;;;;14.38;100.00;98798.72;5054653;28;20246;-78
2023/06/13 04:56:54;;;;;;;2.17;1.50;;;;;;;14.38;100.00;98796.16;5054307;28;20759;-78
2023/06/13 04:59:21;;;;;;;2.73;1.70;;;;;;;14.46;100.00;98798.81;5052888;28;20657;-78
2023/06/13 05:01:48;;;;;;;1.70;1.30;;;;;;;14.52;100.00;98803.44;5054035;28;20231;-78
2023/06/13 05:04:15;;;;;;;3.23;1.50;;;;;;;14.63;100.00;98799.84;5052631;28;20211;-78
2023/06/13 05:06:42;;;;;;;1.83;1.40;;;;;;;14.68;100.00;98803.59;5053524;28;20257;-78
2023/06/13 05:09:13;;;;;;;2.53;1.80;;;;;;;14.78;100.00;98802.75;5053261;28;20195;-78
2023/06/13 05:11:40;;;;;;;1.63;1.43;;;;;;;14.81;100.00;98805.03;5053025;28;20706;-78
2023/06/13 05:14:07;;;;;;;1.57;1.33;;;;;;;14.86;100.00;98806.19;5052550;28;20204;-78
2023/06/13 05:16:35;;;;;;;2.73;1.50;;;;;;;14.86;100.00;98810.53;5051503;28;20726;-78
2023/06/13 05:19:02;;;;;;;1.80;1.60;;;;;;;14.89;100.00;98811.09;5052356;28;20206;-78
2023/06/13 05:21:31;;;;;;;2.00;1.60;;;;;;;14.97;100.00;98812.13;5052007;28;20227;-78
2023/06/13 05:23:58;;;;;;;2.33;1.83;;;;;;;15.04;100.00;98811.41;5053210;28;20269;-78
2023/06/13 05:26:27;;;;;;;2.37;1.57;;;;;;;15.07;100.00;98810.28;5053112;28;20352;-78
2023/06/13 05:28:54;;;;;;;1.77;1.50;;;;;;;15.12;100.00;98806.31;5053233;28;20305;-79
2023/06/13 05:31:21;;;;;;;2.30;1.57;;;;;;;15.22;100.00;98820.91;5052319;28;20233;-78
2023/06/13 05:33:48;;;;;;;3.30;1.93;;;;;;;15.31;100.00;98825.16;5053012;28;20686;-78
2023/06/13 05:36:15;;;;;;;3.10;1.63;;;;;;;15.46;100.00;98833.97;5052839;28;20276;-77
2023/06/13 05:38:42;;;;;;;2.33;1.57;;;;;;;15.55;100.00;98827.94;5055089;28;20212;-78
2023/06/13 05:41:08;;;;;;;2.23;1.50;;;;;;;15.66;100.00;98824.31;5055547;28;20216;-78
2023/06/13 05:43:37;;;;;;;2.20;1.50;;;;;;;15.73;100.00;98835.66;5055337;28;20238;-78
2023/06/13 05:46:03;;;;;;;2.93;1.70;;;;;;;15.90;100.00;98835.78;5054737;28;20672;-78
2023/06/13 05:48:30;;;;;;;2.03;1.53;;;;;;;16.02;100.00;98839.72;5054992;28;20221;-79
2023/06/13 05:50:57;;;;;;;2.87;1.60;;;;;;;16.10;100.00;98837.22;5054503;28;20217;-77
2023/06/13 05:53:24;;;;;;;3.67;1.87;;;;;;;16.23;100.00;98831.63;5054600;28;20201;-78
2023/06/13 05:55:51;;;;;;;4.00;1.70;;;;;;;16.26;100.00;98831.31;5053758;28;20256;-78
2023/06/13 05:58:18;;;;;;;3.00;1.70;;;;;;;16.33;100.00;98840.09;5053388;28;20645;-77
2023/06/13 06:00:46;;;;;;;1.97;1.50;;;;;;;16.48;100.00;98830.00;5055213;28;20231;-78
2023/06/13 06:03:14;;;;;;;2.27;1.50;;;;;;;16.51;100.00;98835.63;5054357;28;20932;-78
2023/06/13 06:05:41;;;;;;;2.17;1.70;;;;;;;16.63;100.00;98835.38;5051291;28;20215;-78
2023/06/13 06:08:08;;;;;;;2.80;1.80;;;;;;;16.70;100.00;98834.59;5051710;28;20210;-78
2023/06/13 06:10:35;;;;;;;3.73;1.70;;;;;;;16.82;100.00;98839.50;5053807;28;20671;-78
2023/06/13 06:13:01;;;;;;;2.77;1.67;;;;;;;16.82;100.00;98831.75;5052952;28;20664;-78
2023/06/13 06:15:28;;;;;;;1.80;1.60;;;;;;;16.90;100.00;98830.00;5055032;28;20250;-78
2023/06/13 06:17:56;;;;;;;2.37;1.50;;;;;;;16.97;100.00;98833.56;5055089;28;20215;-78
2023/06/13 06:20:23;;;;;;;3.53;1.80;;;;;;;17.00;100.00;98839.41;5052754;28;20218;-78
2023/06/13 06:22:50;;;;;;;2.13;1.60;;;;;;;17.06;100.00;98843.94;5054561;28;20225;-79
2023/06/13 06:25:19;;;;;;;3.03;1.70;;;;;;;17.18;100.00;98843.44;5053220;28;20224;-78
2023/06/13 06:27:47;;;;;;;1.60;1.40;;;;;;;17.29;100.00;98838.97;5054485;28;20210;-78
2023/06/13 06:30:15;;;;;;;2.20;1.47;;;;;;;17.29;100.00;98834.59;5053190;28;20233;-78
2023/06/13 06:32:43;;;;;;;3.60;1.70;;;;;;;17.37;100.00;98833.81;5052933;28;20255;-78
2023/06/13 06:35:11;;;;;;;2.20;1.50;;;;;;;17.48;100.00;98832.66;5052962;28;20224;-79
2023/06/13 06:37:38;;;;;;;2.57;1.80;;;;;;;17.51;100.00;98833.19;5055883;28;20654;-78
2023/06/13 06:40:08;;;;;;;2.37;1.70;;;;;;;17.60;100.00;98833.97;5055645;28;20217;-78
2023/06/13 06:42:35;;;;;;;2.60;1.60;;;;;;;17.75;100.00;98828.97;5053393;28;20321;-77
2023/06/13 06:45:03;;;;;;;2.93;2.00;;;;;;;17.84;100.00;98830.59;5055772;28;20254;-78
2023/06/13 06:47:30;;;;;;;2.40;1.57;;;;;;;17.84;100.00;98833.97;5053295;28;20208;-77
2023/06/13 06:49:57;;;;;;;2.60;1.87;;;;;;;17.97;100.00;98832.66;5052946;28;20202;-78
2023/06/13 06:52:25;;;;;;;2.50;1.47;;;;;;;18.06;100.00;98836.84;5052876;28;20192;-78
2023/06/13 06:54:52;;;;;;;3.27;1.73;;;;;;;18.04;100.00;98828.47;5056292;28;20196;-78
2023/06/13 06:57:18;;;;;;;2.43;1.60;;;;;;;18.13;100.00;98840.41;5053360;28;20252;-78
2023/06/13 06:59:45;;;;;;;1.90;1.43;;;;;;;18.17;100.00;98839.09;5055482;28;20222;-77
2023/06/13 07:02:12;;;;;;;2.10;1.57;;;;;;;18.20;100.00;98838.75;5057711;28;20204;-78
2023/06/13 07:04:39;;;;;;;2.90;1.53;;;;;;;18.14;100.00;98839.41;5055330;28;20231;-77
2023/06/13 07:07:06;;;;;;;2.57;1.70;;;;;;;18.21;100.00;98839.56;5056695;28;20211;-78
2023/06/13 07:09:34;;;;;;;2.70;1.70;;;;;;;18.21;100.00;98837.81;5056841;28;20667;-78
2023/06/13 07:12:01;;;;;;;2.17;1.70;;;;;;;18.22;100.00;98834.22;5055577;28;20223;-78
2023/06/13 07:14:27;;;;;;;2.40;1.73;;;;;;;18.23;100.00;98827.28;5058036;28;20208;-78
2023/06/13 07:16:55;;;;;;;1.77;1.33;;;;;;;18.30;100.00;98834.22;5060236;28;20234;-78
2023/06/13 07:19:21;;;;;;;3.67;1.60;;;;;;;18.27;100.00;98834.56;5057539;28;20295;-77
2023/06/13 07:21:48;;;;;;;2.50;1.70;;;;;;;18.24;100.00;98832.28;5056729;28;20257;-78
2023/06/13 07:24:15;;;;;;;2.47;1.70;;;;;;;18.26;100.00;98827.75;5057825;28;20476;-78
2023/06/13 07:26:43;;;;;;;2.90;1.80;;;;;;;18.26;100.00;98832.91;5056359;28;20215;-77
2023/06/13 07:29:10;;;;;;;3.77;2.20;;;;;;;18.29;100.00;98824.81;5055909;28;20206;-78
2023/06/13 07:31:37;;;;;;;3.07;2.00;;;;;;;18.29;100.00;98817.06;5057316;28;20275;-78
2023/06/13 07:34:05;;;;;;;3.53;1.90;;;;;;;18.36;100.00;98816.41;5055023;28;20222;-78
2023/06/13 07:36:32;;;;;;;3.27;1.80;;;;;;;18.49;100.00;98827.03;5054138;28;20227;-79
2023/06/13 07:38:58;;;;;;;2.17;1.70;;;;;;;18.57;100.00;98824.41;5057000;28;20641;-80
2023/06/13 07:41:26;;;;;;;3.90;1.90;;;;;;;18.70;100.00;98824.69;5054491;28;20592;-79
2023/06/13 07:43:54;;;;;;;4.03;2.17;;;;;;;18.80;100.00;98827.09;5054474;28;20796;-78
2023/06/13 07:46:21;;;;;;;3.27;2.07;;;;;;;18.93;100.00;98827.31;5056256;28;20230;-79
2023/06/13 07:48:48;;;;;;;2.80;1.90;;;;;;;19.10;100.00;98835.81;5055103;28;20197;-79
2023/06/13 07:51:15;;;;;;;4.20;1.83;;;;;;;19.15;100.00;98837.91;5053310;28;20222;-79
2023/06/13 07:53:42;;;;;;;2.97;2.10;;;;;;;19.35;100.00;98839.06;5055987;28;20209;-79
2023/06/13 07:56:08;;;;;;;3.17;2.00;;;;;;;19.41;99.56;98832.38;5055166;28;20214;-77
2023/06/13 07:58:35;;;;;;;2.60;1.83;;;;;;;19.50;100.00;98836.50;5054968;28;20605;-79
2023/06/13 08:01:04;;;;;;;2.83;1.90;;;;;;;19.55;97.69;98842.00;5054744;28;20228;-79
2023/06/13 08:03:31;;;;;;;2.90;1.90;;;;;;;19.48;99.23;98837.66;5056305;28;20333;-78
2023/06/13 08:05:58;;;;;;;2.17;1.67;;;;;;;19.47;97.57;98836.84;5053643;28;20781;-79
2023/06/13 08:08:25;;;;;;;2.63;1.70;;;;;;;19.55;100.00;98838.59;5052857;28;20205;-79
2023/06/13 08:10:52;;;;;;;2.90;1.83;;;;;;;19.53;96.63;98840.53;5052741;28;20224;-79
2023/06/13 08:13:20;;;;;;;2.73;1.60;;;;;;;19.57;99.66;98841.78;5054000;28;20206;-79
2023/06/13 08:15:46;;;;;;;2.40;1.83;;;;;;;19.45;99.91;98844.00;5055330;28;20468;-79
2023/06/13 08:18:15;;;;;;;1.67;1.50;;;;;;;19.60;100.00;98834.47;5053043;28;20209;-79
2023/06/13 08:20:41;;;;;;;2.33;1.83;;;;;;;19.60;99.80;98837.06;5055694;28;20255;-78
2023/06/13 08:23:08;;;;;;;2.50;2.00;;;;;;;19.68;100.00;98837.03;5054260;28;20510;-78
2023/06/13 08:25:35;;;;;;;2.80;1.77;;;;;;;19.82;100.00;98840.66;5053240;28;20287;-80
2023/06/13 08:28:04;;;;;;;3.27;1.97;;;;;;;19.87;99.37;98837.53;5052709;28;20251;-79
2023/06/13 08:30:30;;;;;;;2.83;1.87;;;;;;;19.93;98.46;98830.84;5053361;28;20230;-79
2023/06/13 08:33:01;;;;;;;2.57;1.80;;;;;;;20.07;99.51;98830.84;5053555;28;20686;-79
2023/06/13 08:35:30;;;;;;;3.40;2.00;;;;;;;20.02;96.10;98840.94;5052141;28;20227;-79
2023/06/13 08:37:56;;;;;;;4.13;1.87;;;;;;;20.04;96.87;98832.97;5053151;28;20692;-80
2023/06/13 08:40:23;;;;;;;2.97;1.80;;;;;;;20.09;96.75;98834.03;5052276;28;20229;-79
2023/06/13 08:42:50;;;;;;;2.93;1.80;;;;;;;20.07;99.21;98845.59;5051629;28;20204;-79
2023/06/13 08:45:18;;;;;;;2.57;1.87;;;;;;;20.14;98.43;98833.53;5051932;28;20225;-79
2023/06/13 08:47:48;;;;;;;3.03;2.10;;;;;;;20.31;99.43;98834.97;5052247;28;20209;-80
2023/06/13 08:50:18;;;;;;;2.50;1.97;;;;;;;20.40;96.66;98837.47;5052838;28;20251;-80
2023/06/13 08:52:48;;;;;;;2.77;2.00;;;;;;;20.43;94.85;98835.31;5052794;28;20200;-79
2023/06/13 08:55:16;;;;;;;4.77;2.30;;;;;;;20.54;96.90;98834.88;5053365;28;20268;-79
2023/06/13 08:57:45;;;;;;;2.47;1.80;;;;;;;20.64;96.81;98828.59;5052257;28;20204;-79
2023/06/13 09:00:15;;;;;;;2.90;2.03;;;;;;;20.80;95.54;98833.59;5051807;28;20220;-80
2023/06/13 09:02:43;;;;;;;3.80;2.17;;;;;;;20.92;94.94;98832.13;5051590;28;20223;-79
2023/06/13 09:05:13;;;;;;;4.83;2.63;;;;;;;21.02;93.30;98824.81;5051568;28;20321;-80
2023/06/13 09:07:40;;;;;;;2.60;2.00;;;;;;;21.15;95.54;98825.97;5052112;28;20214;-80
2023/06/13 09:10:10;;;;;;;2.87;2.00;;;;;;;21.26;93.57;98830.66;5052693;28;20303;-79
2023/06/13 09:12:37;;;;;;;4.37;2.43;;;;;;;21.29;91.38;98827.66;5052954;28;20295;-80
2023/06/13 09:15:05;;;;;;;6.40;2.47;;;;;;;21.35;93.00;98821.75;5051653;28;20227;-79
2023/06/13 09:17:32;;;;;;;5.53;2.27;;;;;;;21.36;92.07;98812.97;5052068;28;20282;-79
2023/06/13 09:19:58;;;;;;;3.13;2.10;;;;;;;21.52;92.98;98818.91;5053217;28;20224;-79
2023/06/13 09:22:26;;;;;;;2.77;2.10;;;;;;;21.58;91.31;98821.53;5051081;28;20195;-79
2023/06/13 09:24:53;;;;;;;3.33;2.50;;;;;;;21.91;94.96;98824.41;5052606;28;20234;-79
2023/06/13 09:27:22;;;;;;;3.78;2.50;;;;;;;22.15;89.99;98825.75;5052866;28;20199;-79
2023/06/13 09:29:51;;;;;;;3.25;2.10;;;;;;;22.33;89.11;98817.44;5051671;28;20700;-78
2023/06/13 09:32:19;;;;;;;3.15;2.40;;;;;;;22.69;90.57;98821.63;5052884;28;20228;-79
2023/06/13 09:34:46;;;;;;;5.07;2.65;;;;;;;23.01;89.07;98811.53;5052718;28;20519;-79
2023/06/13 09:37:13;;;;;;;6.57;2.40;;;;;;;23.32;85.92;98807.53;5052846;28;20200;-78
2023/06/13 09:39:47;;;;;;;3.30;2.60;;;;;;;23.55;82.92;98823.59;5053520;28;20207;-78
2023/06/13 09:42:14;;;;;;;3.10;2.42;;;;;;;23.72;85.48;98814.38;5053860;28;20203;-78
2023/06/13 09:44:42;;;;;;;3.60;2.53;;;;;;;23.78;81.25;98817.19;5053657;28;20305;-78
2023/06/13 09:47:20;;;;;;;4.88;2.35;;;;;;;23.94;82.33;98816.78;5052746;28;20201;-78
2023/06/13 09:49:46;;;;;;;6.88;2.75;;;;;;;24.11;81.44;98820.53;5053897;28;20203;-79
2023/06/13 09:52:13;;;;;;;3.90;2.50;;;;;;;24.30;84.50;98812.84;5053637;28;20207;-78
2023/06/13 09:54:44;;;;;;;5.95;2.35;;;;;;;24.43;79.20;98819.88;5054105;28;20199;-79
2023/06/13 09:57:11;;;;;;;3.10;2.55;;;;;;;24.48;77.57;98818.25;5055001;28;20199;-78
2023/06/13 09:59:38;;;;;;;3.60;2.70;;;;;;;24.61;77.10;98820.00;5054071;28;20204;-78
2023/06/13 10:02:07;;;;;;;5.72;2.50;;;;;;;24.72;75.50;98815.91;5052026;28;20273;-78
2023/06/13 10:04:34;;;;;;;4.70;2.75;;;;;;;24.93;78.81;98810.38;5051813;28;20235;-78
2023/06/13 10:07:02;;;;;;;3.10;2.55;;;;;;;25.06;77.95;98815.53;5052866;28;20273;-78
2023/06/13 10:09:29;;;;;;;3.65;2.35;;;;;;;25.12;78.64;98807.84;5054624;28;20235;-79
2023/06/13 10:11:59;;;;;;;3.42;2.25;;;;;;;25.27;79.73;98817.00;5051978;28;20282;-79
2023/06/13 10:14:28;;;;;;;3.13;2.17;;;;;;;25.40;74.03;98815.34;5054779;28;20737;-79
2023/06/13 10:17:01;;;;;;;3.92;2.47;;;;;;;25.57;74.22;98815.56;5053818;28;20298;-79
2023/06/13 10:19:32;;;;;;;7.82;2.65;;;;;;;25.57;75.96;98816.41;5053367;28;20256;-78
2023/06/13 10:21:59;;;;;;;2.92;2.30;;;;;;;25.83;72.66;98820.63;5052415;28;20378;-79
2023/06/13 10:24:27;;;;;;;2.85;2.47;;;;;;;26.01;74.52;98816.44;5051404;28;20280;-79
2023/06/13 10:26:59;;;;;;;3.42;2.60;;;;;;;26.07;70.71;98810.31;5051918;28;20216;-79
2023/06/13 10:30:03;;;;;;;3.30;2.45;;;;;;;26.11;66.60;98808.84;5052225;28;20215;-79
2023/06/13 10:32:52;;;;;;;5.50;2.55;;;;;;;25.95;66.15;98811.03;5052392;28;20262;-79
2023/06/13 10:35:44;;;;;;;3.25;2.28;;;;;;;26.09;68.59;98803.00;5055372;28;20907;-79
2023/06/13 10:38:54;;;;;;;3.60;2.85;;;;;;;26.26;70.88;98798.00;5057278;28;20199;-78
2023/06/13 10:41:47;;;;;;;4.47;2.67;;;;;;;26.31;67.90;98800.75;5057059;28;20273;-79
2023/06/13 10:44:21;;;;;;;3.20;2.50;;;;;;;26.22;64.66;98802.88;5056845;28;20317;-79
2023/06/13 10:46:48;;;;;;;5.57;2.63;;;;;;;26.13;65.79;98801.56;5055902;28;20639;-79
2023/06/13 10:49:15;;;;;;;3.28;2.75;;;;;;;25.89;66.14;98803.22;5055108;28;20680;-79
2023/06/13 10:51:45;;;;;;;4.43;2.50;;;;;;;25.79;71.22;98798.47;5056346;28;20223;-79
2023/06/13 10:54:14;;;;;;;4.50;2.63;;;;;;;25.85;68.78;98802.84;5055668;28;20207;-79
2023/06/13 10:56:42;;;;;;;3.20;2.40;;;;;;;25.90;69.30;98794.38;5054822;28;20261;-79
2023/06/13 10:59:11;;;;;;;4.45;2.60;;;;;;;25.94;69.83;98798.94;5054768;28;20281;-80
2023/06/13 11:01:39;;;;;;;3.83;2.40;;;;;;;25.84;65.88;98801.28;5054350;28;20220;-79
2023/06/13 11:04:11;;;;;;;3.60;2.30;;;;;;;25.84;64.34;98800.47;5055460;28;20242;-78
2023/06/13 11:06:38;;;;;;;3.03;2.53;;;;;;;25.73;66.76;98794.09;5056080;28;20598;-79
2023/06/13 11:09:15;;;;;;;9.07;2.53;;;;;;;25.66;67.27;98798.59;5055927;28;20199;-79
2023/06/13 11:11:45;;;;;;;5.70;2.38;;;;;;;25.62;67.26;98794.78;5054877;28;20271;-79
2023/06/13 11:14:12;;;;;;;3.08;2.33;;;;;;;25.60;64.92;98795.03;5055321;28;20207;-79
2023/06/13 11:16:40;;;;;;;3.45;2.50;;;;;;;25.60;65.82;98794.19;5054659;28;20792;-79
2023/06/13 11:19:13;;;;;;;3.35;2.53;;;;;;;25.63;68.88;98791.19;5055657;28;20574;-79
2023/06/13 11:21:44;;;;;;;2.72;2.42;;;;;;;25.52;63.40;98803.16;5055056;28;20223;-78
2023/06/13 11:24:17;;;;;;;8.18;2.63;;;;;;;25.53;67.75;98781.97;5054699;28;20280;-79
2023/06/13 11:26:45;;;;;;;5.68;2.63;;;;;;;25.62;69.24;98779.09;5054283;28;20211;-79
2023/06/13 11:29:13;;;;;;;3.45;2.55;;;;;;;25.46;65.10;98783.06;5055518;28;20215;-79
2023/06/13 11:31:41;;;;;;;3.63;2.55;;;;;;;25.52;69.07;98772.53;5054775;28;20280;-79